Time,TemperatureF,DewpointF,PressureIn,WindDirection,WindDirectionDegrees,WindSpeedMPH,WindSpeedGustMPH,Humidity,HourlyPrecipIn,Conditions,Clouds,dailyrainin,SoftwareType,DateUTC
2013-09-05 00:00:00,77.3,37.7,29.94,East,91,1.0,1.0,24,0.00,,,0.00,Wunderground v.1.15,2013-09-05 06:00:00,
2013-09-05 00:10:00,77.1,38.6,29.94,East,91,1.0,2.0,25,0.00,,,0.00,Wunderground v.1.15,2013-09-05 06:10:00,
2013-09-05 00:20:00,77.5,38.9,29.95,ESE,113,2.0,2.0,25,0.00,,,0.00,Wunderground v.1.15,2013-09-05 06:20:00,
2013-09-05 00:30:00,77.3,38.7,29.95,ESE,113,0.0,0.0,25,0.00,,,0.00,Wunderground v.1.15,2013-09-05 06:30:00,
2013-09-05 00:40:00,76.9,39.4,29.95,ESE,113,0.0,0.0,26,0.00,,,0.00,Wunderground v.1.15,2013-09-05 06:40:00,
2013-09-05 00:50:00,76.9,39.4,29.95,ESE,113,1.0,1.0,26,0.00,,,0.00,Wunderground v.1.15,2013-09-05 06:50:00,
2013-09-05 01:00:00,76.9,39.4,29.95,ESE,113,1.0,2.0,26,0.00,,,0.00,Wunderground v.1.15,2013-09-05 07:00:00,
2013-09-05 01:10:00,76.4,39.0,29.95,ESE,113,1.0,1.0,26,0.00,,,0.00,Wunderground v.1.15,2013-09-05 07:10:00,
2013-09-05 01:20:00,75.6,39.2,29.95,ESE,113,0.0,8.0,27,0.00,,,0.00,Wunderground v.1.15,2013-09-05 07:20:00,
2013-09-05 01:30:00,75.2,39.8,29.95,ESE,113,0.0,8.0,28,0.00,,,0.00,Wunderground v.1.15,2013-09-05 07:30:00,
2013-09-05 01:40:00,74.7,40.3,29.95,ESE,113,0.0,8.0,29,0.00,,,0.00,Wunderground v.1.15,2013-09-05 07:40:00,
2013-09-05 01:50:00,74.0,39.7,29.96,ESE,113,1.0,1.0,29,0.00,,,0.00,Wunderground v.1.15,2013-09-05 07:50:00,
2013-09-05 02:00:00,74.2,40.8,29.95,ESE,113,0.0,8.0,30,0.00,,,0.00,Wunderground v.1.15,2013-09-05 08:00:00,
2013-09-05 02:10:00,73.4,40.1,29.95,ESE,113,0.0,8.0,30,0.00,,,0.00,Wunderground v.1.15,2013-09-05 08:10:00,
2013-09-05 02:20:00,73.1,39.8,29.94,ESE,113,0.0,8.0,30,0.00,,,0.00,Wunderground v.1.15,2013-09-05 08:20:00,
2013-09-05 02:30:00,72.7,39.5,29.95,ESE,113,0.0,8.0,30,0.00,,,0.00,Wunderground v.1.15,2013-09-05 08:30:00,
2013-09-05 02:40:00,72.2,39.9,29.95,ESE,113,0.0,8.0,31,0.00,,,0.00,Wunderground v.1.15,2013-09-05 08:40:00,
2013-09-05 02:50:00,72.0,40.5,29.94,ESE,113,0.0,8.0,32,0.00,,,0.00,Wunderground v.1.15,2013-09-05 08:50:00,
2013-09-05 03:00:00,71.5,40.9,29.94,ESE,113,0.0,8.0,33,0.00,,,0.00,Wunderground v.1.15,2013-09-05 09:00:00,
2013-09-05 03:10:00,71.3,39.9,29.94,ESE,113,0.0,8.0,32,0.00,,,0.00,Wunderground v.1.15,2013-09-05 09:10:00,
2013-09-05 03:20:00,71.0,39.6,29.94,ESE,113,0.0,8.0,32,0.00,,,0.00,Wunderground v.1.15,2013-09-05 09:20:00,
2013-09-05 03:30:00,70.8,39.5,29.94,ESE,113,0.0,8.0,32,0.00,,,0.00,Wunderground v.1.15,2013-09-05 09:30:00,
2013-09-05 03:40:00,70.2,40.5,29.94,ESE,113,0.0,8.0,34,0.00,,,0.00,Wunderground v.1.15,2013-09-05 09:40:00,
2013-09-05 03:50:00,68.5,40.5,29.94,ESE,113,0.0,8.0,36,0.00,,,0.00,Wunderground v.1.15,2013-09-05 09:50:00,
2013-09-05 04:00:00,67.5,41.0,29.94,ESE,113,0.0,8.0,38,0.00,,,0.00,Wunderground v.1.15,2013-09-05 10:00:00,
2013-09-05 04:10:00,66.8,41.7,29.94,ESE,113,0.0,8.0,40,0.00,,,0.00,Wunderground v.1.15,2013-09-05 10:10:00,
2013-09-05 04:20:00,66.6,41.5,29.95,ESE,113,0.0,8.0,40,0.00,,,0.00,Wunderground v.1.15,2013-09-05 10:20:00,
2013-09-05 04:30:00,66.1,42.3,29.94,ESE,113,0.0,8.0,42,0.00,,,0.00,Wunderground v.1.15,2013-09-05 10:30:00,
2013-09-05 04:40:00,65.7,41.3,29.94,ESE,113,0.0,8.0,41,0.00,,,0.00,Wunderground v.1.15,2013-09-05 10:40:00,
2013-09-05 04:50:00,65.9,42.8,29.95,ESE,113,0.0,8.0,43,0.00,,,0.00,Wunderground v.1.15,2013-09-05 10:50:00,
2013-09-05 05:00:00,65.2,43.3,29.95,ESE,113,0.0,8.0,45,0.00,,,0.00,Wunderground v.1.15,2013-09-05 11:00:00,
2013-09-05 05:10:00,64.6,42.2,29.95,ESE,113,0.0,8.0,44,0.00,,,0.00,Wunderground v.1.15,2013-09-05 11:10:00,
2013-09-05 05:20:00,64.3,41.9,29.95,ESE,113,0.0,8.0,44,0.00,,,0.00,Wunderground v.1.15,2013-09-05 11:20:00,
2013-09-05 05:30:00,63.8,44.3,29.95,ESE,113,0.0,8.0,49,0.00,,,0.00,Wunderground v.1.15,2013-09-05 11:30:00,
2013-09-05 05:40:00,63.1,44.7,29.96,ESE,113,0.0,8.0,51,0.00,,,0.00,Wunderground v.1.15,2013-09-05 11:40:00,
2013-09-05 05:50:00,63.3,42.7,29.96,ESE,113,0.0,8.0,47,0.00,,,0.00,Wunderground v.1.15,2013-09-05 11:50:00,
2013-09-05 06:00:00,64.0,42.2,29.96,ESE,113,0.0,8.0,45,0.00,,,0.00,Wunderground v.1.15,2013-09-05 12:00:00,
2013-09-05 06:10:00,63.9,42.1,29.96,ESE,113,0.0,8.0,45,0.00,,,0.00,Wunderground v.1.15,2013-09-05 12:10:00,
2013-09-05 06:20:00,63.5,42.3,29.97,ESE,113,0.0,8.0,46,0.00,,,0.00,Wunderground v.1.15,2013-09-05 12:20:00,
2013-09-05 06:30:00,63.0,41.9,29.97,ESE,113,0.0,8.0,46,0.00,,,0.00,Wunderground v.1.15,2013-09-05 12:30:00,
2013-09-05 06:40:00,62.6,43.7,29.97,ESE,113,0.0,8.0,50,0.00,,,0.00,Wunderground v.1.15,2013-09-05 12:40:00,
2013-09-05 06:50:00,62.1,43.2,29.97,ESE,113,0.0,8.0,50,0.00,,,0.00,Wunderground v.1.15,2013-09-05 12:50:00,
2013-09-05 07:00:00,62.0,43.1,29.97,ESE,113,0.0,8.0,50,0.00,,,0.00,Wunderground v.1.15,2013-09-05 13:00:00,
2013-09-05 07:10:00,62.0,43.1,29.97,ESE,113,0.0,8.0,50,0.00,,,0.00,Wunderground v.1.15,2013-09-05 13:10:00,
2013-09-05 07:20:00,62.7,43.3,29.97,ESE,113,0.0,8.0,49,0.00,,,0.00,Wunderground v.1.15,2013-09-05 13:20:00,
2013-09-05 07:30:00,63.6,43.0,29.98,ESE,113,0.0,8.0,47,0.00,,,0.00,Wunderground v.1.15,2013-09-05 13:30:00,
2013-09-05 07:40:00,64.8,42.9,29.98,ESE,113,0.0,8.0,45,0.00,,,0.00,Wunderground v.1.15,2013-09-05 13:40:00,
2013-09-05 07:50:00,66.2,43.6,29.98,ESE,113,0.0,8.0,44,0.00,,,0.00,Wunderground v.1.15,2013-09-05 13:50:00,
2013-09-05 08:00:00,67.7,43.8,29.98,ESE,113,0.0,8.0,42,0.00,,,0.00,Wunderground v.1.15,2013-09-05 14:00:00,
2013-09-05 08:10:00,68.7,44.0,29.98,ESE,113,1.0,1.0,41,0.00,,,0.00,Wunderground v.1.15,2013-09-05 14:10:00,
2013-09-05 08:20:00,69.1,43.8,29.98,ESE,113,1.0,8.0,40,0.00,,,0.00,Wunderground v.1.15,2013-09-05 14:20:00,
2013-09-05 08:30:00,69.1,43.8,29.98,ESE,113,2.0,8.0,40,0.00,,,0.00,Wunderground v.1.15,2013-09-05 14:30:00,
2013-09-05 08:40:00,69.6,44.2,29.98,ESE,113,1.0,1.0,40,0.00,,,0.00,Wunderground v.1.15,2013-09-05 14:40:00,
2013-09-05 08:50:00,71.1,44.9,29.98,ESE,113,0.0,8.0,39,0.00,,,0.00,Wunderground v.1.15,2013-09-05 14:50:00,
2013-09-05 09:00:00,71.7,44.7,29.99,ESE,113,2.0,8.0,38,0.00,,,0.00,Wunderground v.1.15,2013-09-05 15:00:00,
2013-09-05 09:10:00,72.2,45.2,29.99,ENE,68,2.0,8.0,38,0.00,,,0.00,Wunderground v.1.15,2013-09-05 15:10:00,
2013-09-05 09:20:00,72.8,45.0,29.99,ENE,68,2.0,2.0,37,0.00,,,0.00,Wunderground v.1.15,2013-09-05 15:20:00,
2013-09-05 09:30:00,74.2,45.5,29.99,ENE,68,1.0,1.0,36,0.00,,,0.00,Wunderground v.1.15,2013-09-05 15:30:00,
2013-09-05 09:40:00,75.0,45.5,29.99,ENE,68,1.0,8.0,35,0.00,,,0.00,Wunderground v.1.15,2013-09-05 15:40:00,
2013-09-05 09:50:00,76.4,46.7,29.99,ENE,68,1.0,8.0,35,0.00,,,0.00,Wunderground v.1.15,2013-09-05 15:50:00,
2013-09-05 10:00:00,77.6,46.2,29.99,ENE,68,1.0,1.0,33,0.00,,,0.00,Wunderground v.1.15,2013-09-05 16:00:00,
2013-09-05 10:10:00,78.3,45.2,29.99,ENE,68,1.0,8.0,31,0.00,,,0.00,Wunderground v.1.15,2013-09-05 16:10:00,
2013-09-05 10:20:00,80.4,45.2,29.99,ENE,68,0.0,8.0,29,0.00,,,0.00,Wunderground v.1.15,2013-09-05 16:20:00,
2013-09-05 10:30:00,81.7,45.4,29.99,ENE,68,1.0,8.0,28,0.00,,,0.00,Wunderground v.1.15,2013-09-05 16:30:00,
2013-09-05 10:40:00,82.0,43.7,29.99,ENE,68,1.0,8.0,26,0.00,,,0.00,Wunderground v.1.15,2013-09-05 16:40:00,
2013-09-05 10:50:00,82.7,43.3,29.99,ENE,68,1.0,1.0,25,0.00,,,0.00,Wunderground v.1.15,2013-09-05 16:50:00,
2013-09-05 11:00:00,83.7,43.1,29.99,ENE,68,1.0,1.0,24,0.00,,,0.00,Wunderground v.1.15,2013-09-05 17:00:00,
2013-09-05 11:10:00,83.6,43.0,29.98,ENE,68,1.0,1.0,24,0.00,,,0.00,Wunderground v.1.15,2013-09-05 17:10:00,
2013-09-05 11:20:00,83.0,41.4,29.98,SSW,205,3.0,8.0,23,0.00,,,0.00,Wunderground v.1.15,2013-09-05 17:20:00,
2013-09-05 11:30:00,83.3,41.6,29.98,SSW,213,2.0,8.0,23,0.00,,,0.00,Wunderground v.1.15,2013-09-05 17:30:00,
2013-09-05 11:40:00,83.8,42.0,29.97,South,178,4.0,8.0,23,0.00,,,0.00,Wunderground v.1.15,2013-09-05 17:40:00,
2013-09-05 11:50:00,84.1,42.3,29.97,SW,221,4.0,4.0,23,0.00,,,0.00,Wunderground v.1.15,2013-09-05 17:50:00,
2013-09-05 12:00:00,84.4,42.5,29.97,SSW,194,3.0,8.0,23,0.00,,,0.00,Wunderground v.1.15,2013-09-05 18:00:00,
2013-09-05 12:10:00,84.3,41.3,29.96,SSW,192,4.0,4.0,22,0.00,,,0.00,Wunderground v.1.15,2013-09-05 18:10:00,
2013-09-05 12:20:00,85.3,40.9,29.96,SW,223,3.0,3.0,21,0.00,,,0.00,Wunderground v.1.15,2013-09-05 18:20:00,
2013-09-05 12:30:00,85.7,42.5,29.96,SW,225,3.0,3.0,22,0.00,,,0.00,Wunderground v.1.15,2013-09-05 18:30:00,
2013-09-05 12:40:00,86.8,42.2,29.95,SSW,200,2.0,2.0,21,0.00,,,0.00,Wunderground v.1.15,2013-09-05 18:40:00,
2013-09-05 12:50:00,87.1,41.2,29.95,SSE,167,2.0,8.0,20,0.00,,,0.00,Wunderground v.1.15,2013-09-05 18:50:00,
2013-09-05 13:00:00,85.9,41.4,29.95,SE,125,3.0,3.0,21,0.00,,,0.00,Wunderground v.1.15,2013-09-05 19:00:00,
2013-09-05 13:10:00,87.3,41.3,29.95,South,169,2.0,2.0,20,0.00,,,0.00,Wunderground v.1.15,2013-09-05 19:10:00,
2013-09-05 13:20:00,88.3,42.1,29.94,SW,227,2.0,8.0,20,0.00,,,0.00,Wunderground v.1.15,2013-09-05 19:20:00,
2013-09-05 13:30:00,87.7,41.6,29.94,SW,231,4.0,4.0,20,0.00,,,0.00,Wunderground v.1.15,2013-09-05 19:30:00,
2013-09-05 13:40:00,88.1,42.0,29.93,SSE,168,2.0,8.0,20,0.00,,,0.00,Wunderground v.1.15,2013-09-05 19:40:00,
2013-09-05 13:50:00,87.0,41.1,29.93,SSE,150,5.0,8.0,20,0.00,,,0.00,Wunderground v.1.15,2013-09-05 19:50:00,
2013-09-05 14:00:00,87.5,41.5,29.93,ENE,57,3.0,3.0,20,0.00,,,0.00,Wunderground v.1.15,2013-09-05 20:00:00,
2013-09-05 14:10:00,88.6,41.1,29.92,SSE,160,3.0,3.0,19,0.00,,,0.00,Wunderground v.1.15,2013-09-05 20:10:00,
2013-09-05 14:20:00,89.4,40.3,29.92,SSW,202,2.0,2.0,18,0.00,,,0.00,Wunderground v.1.15,2013-09-05 20:20:00,
2013-09-05 14:30:00,90.2,41.0,29.91,NW,324,2.0,8.0,18,0.00,,,0.00,Wunderground v.1.15,2013-09-05 20:30:00,
2013-09-05 14:40:00,89.5,41.8,29.91,SSE,165,4.0,8.0,19,0.00,,,0.00,Wunderground v.1.15,2013-09-05 20:40:00,
2013-09-05 14:50:00,89.2,41.5,29.90,SSW,200,5.0,8.0,19,0.00,,,0.00,Wunderground v.1.15,2013-09-05 20:50:00,
2013-09-05 15:00:00,89.6,40.5,29.90,SW,220,3.0,3.0,18,0.00,,,0.00,Wunderground v.1.15,2013-09-05 21:00:00,
2013-09-05 15:10:00,89.9,40.7,29.89,South,191,4.0,8.0,18,0.00,,,0.00,Wunderground v.1.15,2013-09-05 21:10:00,
2013-09-05 15:20:00,89.0,41.4,29.89,South,173,3.0,8.0,19,0.00,,,0.00,Wunderground v.1.15,2013-09-05 21:20:00,
2013-09-05 15:30:00,90.2,41.0,29.89,SW,217,3.0,8.0,18,0.00,,,0.00,Wunderground v.1.15,2013-09-05 21:30:00,
2013-09-05 15:40:00,91.1,40.2,29.88,SW,215,2.0,2.0,17,0.00,,,0.00,Wunderground v.1.15,2013-09-05 21:40:00,
2013-09-05 15:50:00,90.3,39.6,29.88,SSW,202,4.0,4.0,17,0.00,,,0.00,Wunderground v.1.15,2013-09-05 21:50:00,
2013-09-05 16:00:00,91.1,41.7,29.88,SW,215,2.0,8.0,18,0.00,,,0.00,Wunderground v.1.15,2013-09-05 22:00:00,
2013-09-05 16:10:00,89.9,40.7,29.87,SE,146,6.0,6.0,18,0.00,,,0.00,Wunderground v.1.15,2013-09-05 22:10:00,
2013-09-05 16:20:00,89.9,40.7,29.87,SW,216,3.0,3.0,18,0.00,,,0.00,Wunderground v.1.15,2013-09-05 22:20:00,
2013-09-05 16:30:00,89.8,40.6,29.87,SW,234,4.0,9.0,18,0.00,,,0.00,Wunderground v.1.15,2013-09-05 22:30:00,
2013-09-05 16:40:00,90.2,39.5,29.87,SSW,213,5.0,5.0,17,0.00,,,0.00,Wunderground v.1.15,2013-09-05 22:40:00,
2013-09-05 16:50:00,91.9,39.3,29.86,WSW,240,2.0,9.0,16,0.00,,,0.00,Wunderground v.1.15,2013-09-05 22:50:00,
2013-09-05 17:00:00,89.9,39.2,29.86,South,185,5.0,5.0,17,0.00,,,0.00,Wunderground v.1.15,2013-09-05 23:00:00,
2013-09-05 17:10:00,89.2,40.1,29.86,SE,138,3.0,3.0,18,0.00,,,0.00,Wunderground v.1.15,2013-09-05 23:10:00,
2013-09-05 17:20:00,90.1,39.4,29.86,South,177,3.0,8.0,17,0.00,,,0.00,Wunderground v.1.15,2013-09-05 23:20:00,
2013-09-05 17:30:00,90.5,39.7,29.86,SW,215,3.0,8.0,17,0.00,,,0.00,Wunderground v.1.15,2013-09-05 23:30:00,
2013-09-05 17:40:00,90.7,39.9,29.86,SW,218,2.0,8.0,17,0.00,,,0.00,Wunderground v.1.15,2013-09-05 23:40:00,
2013-09-05 17:50:00,90.4,38.1,29.86,SW,234,3.0,3.0,16,0.00,,,0.00,Wunderground v.1.15,2013-09-05 23:50:00,
2013-09-05 18:00:00,90.1,39.4,29.86,SW,227,1.0,1.0,17,0.00,,,0.00,Wunderground v.1.15,2013-09-06 00:00:00,
2013-09-05 18:10:00,90.2,39.5,29.86,SW,227,0.0,8.0,17,0.00,,,0.00,Wunderground v.1.15,2013-09-06 00:10:00,
2013-09-05 18:20:00,89.4,38.8,29.85,SSW,209,3.0,3.0,17,0.00,,,0.00,Wunderground v.1.15,2013-09-06 00:20:00,
2013-09-05 18:30:00,89.5,38.9,29.85,SSW,209,2.0,2.0,17,0.00,,,0.00,Wunderground v.1.15,2013-09-06 00:30:00,
2013-09-05 18:40:00,89.3,38.8,29.85,SW,214,2.0,2.0,17,0.00,,,0.00,Wunderground v.1.15,2013-09-06 00:40:00,
2013-09-05 18:50:00,89.0,38.5,29.85,SW,214,1.0,8.0,17,0.00,,,0.00,Wunderground v.1.15,2013-09-06 00:50:00,
2013-09-05 19:00:00,88.6,39.7,29.85,SW,214,1.0,8.0,18,0.00,,,0.00,Wunderground v.1.15,2013-09-06 01:00:00,
2013-09-05 19:10:00,88.4,38.0,29.85,SW,214,1.0,1.0,17,0.00,,,0.00,Wunderground v.1.15,2013-09-06 01:10:00,
2013-09-05 19:20:00,88.1,39.3,29.86,SW,214,0.0,8.0,18,0.00,,,0.00,Wunderground v.1.15,2013-09-06 01:20:00,
2013-09-05 19:30:00,87.6,40.2,29.86,SW,214,0.0,8.0,19,0.00,,,0.00,Wunderground v.1.15,2013-09-06 01:30:00,
2013-09-05 19:40:00,86.5,40.7,29.86,SW,214,0.0,8.0,20,0.00,,,0.00,Wunderground v.1.15,2013-09-06 01:40:00,
2013-09-05 19:50:00,85.4,42.2,29.86,SW,214,0.0,8.0,22,0.00,,,0.00,Wunderground v.1.15,2013-09-06 01:50:00,
2013-09-05 20:00:00,84.6,42.7,29.86,SW,214,0.0,8.0,23,0.00,,,0.00,Wunderground v.1.15,2013-09-06 02:00:00,
2013-09-05 20:10:00,83.7,43.1,29.87,SW,214,0.0,8.0,24,0.00,,,0.00,Wunderground v.1.15,2013-09-06 02:10:00,
2013-09-05 20:20:00,83.5,39.4,29.87,SE,132,1.0,8.0,21,0.00,,,0.00,Wunderground v.1.15,2013-09-06 02:20:00,
2013-09-05 20:30:00,83.5,38.2,29.88,SE,132,1.0,1.0,20,0.00,,,0.00,Wunderground v.1.15,2013-09-06 02:30:00,
2013-09-05 20:40:00,83.2,37.9,29.88,SE,132,1.0,8.0,20,0.00,,,0.00,Wunderground v.1.15,2013-09-06 02:40:00,
2013-09-05 20:50:00,83.2,37.9,29.88,ESE,113,1.0,8.0,20,0.00,,,0.00,Wunderground v.1.15,2013-09-06 02:50:00,
2013-09-05 21:00:00,83.1,36.6,29.89,ESE,108,2.0,8.0,19,0.00,,,0.00,Wunderground v.1.15,2013-09-06 03:00:00,
2013-09-05 21:10:00,83.0,36.5,29.89,East,95,3.0,8.0,19,0.00,,,0.00,Wunderground v.1.15,2013-09-06 03:10:00,
2013-09-05 21:20:00,82.6,37.5,29.89,East,95,1.0,1.0,20,0.00,,,0.00,Wunderground v.1.15,2013-09-06 03:20:00,
2013-09-05 21:30:00,81.8,36.8,29.90,East,91,1.0,1.0,20,0.00,,,0.00,Wunderground v.1.15,2013-09-06 03:30:00,
2013-09-05 21:40:00,81.6,36.6,29.90,ESE,107,3.0,8.0,20,0.00,,,0.00,Wunderground v.1.15,2013-09-06 03:40:00,
2013-09-05 21:50:00,81.4,36.5,29.91,ESE,105,3.0,8.0,20,0.00,,,0.00,Wunderground v.1.15,2013-09-06 03:50:00,
2013-09-05 22:00:00,81.2,36.3,29.91,ESE,116,4.0,8.0,20,0.00,,,0.00,Wunderground v.1.15,2013-09-06 04:00:00,
2013-09-05 22:10:00,80.9,37.3,29.91,ESE,112,4.0,8.0,21,0.00,,,0.00,Wunderground v.1.15,2013-09-06 04:10:00,
2013-09-05 22:20:00,80.6,35.8,29.91,ESE,111,3.0,8.0,20,0.00,,,0.00,Wunderground v.1.15,2013-09-06 04:20:00,
2013-09-05 22:30:00,80.5,35.7,29.92,ESE,118,3.0,8.0,20,0.00,,,0.00,Wunderground v.1.15,2013-09-06 04:30:00,
2013-09-05 22:40:00,80.4,35.6,29.92,SE,136,4.0,4.0,20,0.00,,,0.00,Wunderground v.1.15,2013-09-06 04:40:00,
2013-09-05 22:50:00,79.8,36.4,29.92,SSE,153,3.0,8.0,21,0.00,,,0.00,Wunderground v.1.15,2013-09-06 04:50:00,
2013-09-05 23:00:00,79.1,35.8,29.92,South,170,3.0,3.0,21,0.00,,,0.00,Wunderground v.1.15,2013-09-06 05:00:00,
2013-09-05 23:10:00,78.9,35.6,29.93,South,170,1.0,1.0,21,0.00,,,0.00,Wunderground v.1.15,2013-09-06 05:10:00,
2013-09-05 23:20:00,78.8,36.7,29.93,South,170,2.0,8.0,22,0.00,,,0.00,Wunderground v.1.15,2013-09-06 05:20:00,
2013-09-05 23:30:00,78.6,36.6,29.93,SSE,152,2.0,2.0,22,0.00,,,0.00,Wunderground v.1.15,2013-09-06 05:30:00,
2013-09-05 23:40:00,78.3,36.3,29.93,SSE,152,1.0,8.0,22,0.00,,,0.00,Wunderground v.1.15,2013-09-06 05:40:00,
2013-09-05 23:50:00,78.1,37.3,29.93,SSE,152,1.0,8.0,23,0.00,,,0.00,Wunderground v.1.15,2013-09-06 05:50:00,